Earl Gonsoulin — WDC3306 — position and weather

sailwx.info

Track history (hours):
 
Tides and Currents Weather Stations Pressure Air Temp Water Temp Dewpoint Dewpoint Depression Visibility Wind Speed Wind Dir Waves Ship Positions

Earl Gonsoulin

Owner: LeBeouf Bros. Towing, L.L.C., Houma, LA. More information available from US FCC via Universal Licensing System and Coast Guard Vessel Documentation Center.

Last reported at 2016-May-06 08:32 UTC. Time now 2016-May-06 20:37 UTC.
Position N 29°57' W 090°14'.

Length 21 m; draft 3 m.

Type: Tug. MMSI: 367005550.

Date/timePositionNaut miles runAvg speedWind from/ knotsBaromVisibWave heightAir tempDewpointWater temp
2016-May-06 08:32N 29°57' W 090°14'4 3.4
2016-May-06 07:20N 29°57' W 090°09'3 3.4
2016-May-06 06:33N 29°55' W 090°08'4 4.5
2016-May-06 05:33N 29°57' W 090°04'5 4.8
2016-May-06 04:33N 29°56' W 089°58'1 0.7
2016-May-06 03:33N 29°55' W 089°58'2 1.9
2016-May-06 02:33N 29°53' W 089°60'0 0.0
2016-May-06 01:33N 29°53' W 089°60'0 0.0
2016-May-05 22:22N 29°53' W 089°60'0 0.0
2016-May-05 21:33N 29°53' W 089°60'0 0.0
2016-May-05 18:26N 29°53' W 089°60'3 3.5
2016-May-05 17:33N 29°51' W 090°02'28 3.7
2016-May-05 10:05N 29°33' W 090°26'3 5.9
2016-May-05 09:33N 29°34' W 090°30'5 5.3
2016-May-05 08:33N 29°35' W 090°36'4 3.9
2016-May-05 07:33N 29°36' W 090°40'2 2.4
2016-May-05 06:33N 29°35' W 090°43'3 2.6
2016-May-05 05:33N 29°34' W 090°45'2 1.6
2016-May-05 04:33N 29°32' W 090°46'109 4.5
2016-May-04 04:20N 29°58' W 092°47'9 5.1
2016-May-04 02:30N 29°56' W 092°57'5 4.8
2016-May-04 01:31N 29°56' W 093°03'4 4.5
2016-May-04 00:33N 29°56' W 093°08'5 4.7
2016-May-03 23:33N 29°59' W 093°12'5 4.5
2016-May-03 22:33N 30°02' W 093°16'3 3.5
2016-May-03 21:33N 30°05' W 093°18'1 1.0
2016-May-03 20:33N 30°06' W 093°18'3 3.4
2016-May-03 19:33N 30°09' W 093°20'6 5.5
2016-May-03 18:33N 30°13' W 093°16'1 0.6
2016-May-03 17:33N 30°14' W 093°15'0 0.0
2016-May-03 16:33N 30°14' W 093°15'0 0.0
2016-May-03 15:33N 30°14' W 093°15'0 0.0
2016-May-03 14:33N 30°14' W 093°15'0 0.0
2016-May-03 13:33N 30°14' W 093°15'0 0.0
2016-May-03 12:33N 30°14' W 093°15'0 0.0
2016-May-03 11:33N 30°14' W 093°15'0 0.0
2016-May-03 10:33N 30°14' W 093°15'0 0.0
2016-May-03 09:33N 30°14' W 093°15'0 0.0
2016-May-03 08:33N 30°14' W 093°15'0 0.0
2016-May-03 07:33N 30°14' W 093°15'0 0.0
2016-May-03 06:33N 30°14' W 093°15'0 0.0
2016-May-03 05:33N 30°14' W 093°15'0 0.0
2016-May-03 04:33N 30°14' W 093°15'0 0.0
2016-May-03 03:33N 30°14' W 093°15'0 0.0
2016-May-03 02:33N 30°14' W 093°15'0 0.0
2016-May-03 01:33N 30°14' W 093°15'0 0.0
2016-May-03 00:33N 30°14' W 093°15'0 0.0
2016-May-02 23:33N 30°14' W 093°15'0 0.0
2016-May-02 22:33N 30°14' W 093°15'0 0.0
2016-May-02 21:33N 30°14' W 093°15'0 0.0
2016-May-02 20:33N 30°14' W 093°15'0 0.0
2016-May-02 19:33N 30°14' W 093°15'0 0.0
2016-May-02 18:33N 30°14' W 093°15'0 0.0
2016-May-02 17:33N 30°14' W 093°15'0 0.0
2016-May-02 16:33N 30°14' W 093°15'0 0.0
2016-May-02 15:33N 30°14' W 093°15'0 0.0
2016-May-02 14:33N 30°14' W 093°15'0 0.0
2016-May-02 13:33N 30°14' W 093°15'0 0.0
2016-May-02 12:33N 30°14' W 093°15'0 0.0
2016-May-02 11:33N 30°14' W 093°15'0 0.0
2016-May-02 10:33N 30°14' W 093°15'0 0.0
2016-May-02 09:33N 30°14' W 093°15'0 0.0
2016-May-02 08:33N 30°14' W 093°15'0 0.0
2016-May-02 07:33N 30°14' W 093°15'0 0.0
2016-May-02 06:33N 30°14' W 093°15'0 0.0
2016-May-02 05:33N 30°14' W 093°15'0 0.0
2016-May-02 04:33N 30°14' W 093°15'0 0.0
2016-May-02 03:33N 30°14' W 093°15'0 0.0
2016-May-02 02:33N 30°14' W 093°15'0 0.0
2016-May-02 01:33N 30°14' W 093°15'0 0.0
2016-May-02 00:33N 30°14' W 093°15'0 0.0
2016-May-01 23:33N 30°14' W 093°15'0 0.0
2016-May-01 22:33N 30°14' W 093°15'0 0.0
2016-May-01 21:33N 30°14' W 093°15'0 0.0
2016-May-01 20:33N 30°14' W 093°15'0 0.0
2016-May-01 19:33N 30°14' W 093°15'0 0.0
2016-May-01 18:33N 30°14' W 093°15'0 0.0
2016-May-01 17:33N 30°14' W 093°15'0 0.0
2016-May-01 16:33N 30°14' W 093°15'0 0.0
2016-May-01 15:33N 30°14' W 093°15'0 0.0
2016-May-01 14:33N 30°14' W 093°15'0 0.0
2016-May-01 13:33N 30°14' W 093°15'1 0.6
2016-May-01 12:33N 30°13' W 093°16'4 4.1
2016-May-01 11:33N 30°11' W 093°19'2 2.4
2016-May-01 10:33N 30°08' W 093°19'0 0.1
2016-May-01 09:33N 30°08' W 093°19'0 0.0
2016-May-01 08:33N 30°08' W 093°19'0 0.0
2016-May-01 07:33N 30°08' W 093°19'0 0.0
2016-May-01 06:33N 30°08' W 093°19'0 0.0
2016-May-01 05:33N 30°08' W 093°19'0 0.0
2016-May-01 04:33N 30°08' W 093°19'0 0.0
2016-May-01 03:33N 30°08' W 093°19'0 0.0
2016-May-01 02:33N 30°08' W 093°19'0 0.0
2016-May-01 01:33N 30°08' W 093°19'0 0.0
2016-Apr-30 13:33N 30°08' W 093°19'0 0.0
2016-Apr-30 12:33N 30°08' W 093°19'0 0.0
2016-Apr-30 11:33N 30°08' W 093°19'0 0.0
2016-Apr-30 10:33N 30°08' W 093°19'0 0.1
2016-Apr-30 09:33N 30°08' W 093°19'0 0.0
2016-Apr-30 08:33N 30°08' W 093°19'2 2.4
2016-Apr-30 07:33N 30°06' W 093°20'1 1.4
2016-Apr-30 06:33N 30°05' W 093°20'0 0.0
2016-Apr-30 05:32N 30°05' W 093°20'0 0.0
2016-Apr-30 04:32N 30°05' W 093°20'0 0.0
2016-Apr-30 03:33N 30°05' W 093°20'0 0.0
2016-Apr-30 02:33N 30°05' W 093°20'0 0.0
2016-Apr-30 01:30N 30°05' W 093°20'0 0.0
2016-Apr-30 00:33N 30°05' W 093°20'0 0.0
2016-Apr-29 23:30N 30°05' W 093°20'0 0.0
2016-Apr-29 22:28N 30°05' W 093°20'0 0.0
2016-Apr-29 21:33N 30°05' W 093°20'0 0.0
2016-Apr-29 20:30N 30°05' W 093°20'0 0.0
2016-Apr-29 19:25N 30°05' W 093°20'0 0.0
2016-Apr-29 18:08N 30°05' W 093°20'0 0.0
2016-Apr-29 14:29N 30°05' W 093°20'0 0.0
2016-Apr-29 10:32N 30°05' W 093°20'0 0.0
2016-Apr-29 08:32N 30°05' W 093°20'0 0.0
2016-Apr-29 07:33N 30°05' W 093°20'0 0.0
2016-Apr-29 06:33N 30°05' W 093°20'0 0.0
2016-Apr-29 03:33N 30°05' W 093°20'0 0.0
2016-Apr-29 02:33N 30°05' W 093°20'0 0.0
2016-Apr-29 01:33N 30°05' W 093°20'0 0.0
2016-Apr-29 00:33N 30°05' W 093°20'0 0.0
2016-Apr-28 23:33N 30°05' W 093°20'1 0.6
2016-Apr-28 22:33N 30°05' W 093°20'0 0.0
2016-Apr-28 21:33N 30°05' W 093°20'0 0.0
2016-Apr-28 20:33N 30°05' W 093°20'0 0.0
2016-Apr-28 19:33N 30°05' W 093°20'1 0.6
2016-Apr-28 18:33N 30°05' W 093°20'0 0.0
2016-Apr-28 17:33N 30°05' W 093°20'0 0.0
2016-Apr-28 16:33N 30°05' W 093°20'0 0.0
2016-Apr-28 15:33N 30°05' W 093°20'0 0.0
2016-Apr-28 14:33N 30°05' W 093°20'0 0.0
2016-Apr-28 13:33N 30°05' W 093°20'0 0.0
2016-Apr-28 12:33N 30°05' W 093°20'0 0.0
2016-Apr-28 11:33N 30°05' W 093°20'0 0.0
2016-Apr-28 10:33N 30°05' W 093°20'0 0.1
2016-Apr-28 09:33N 30°05' W 093°20'5 4.8
2016-Apr-28 08:33N 30°04' W 093°26'7 6.8
2016-Apr-28 07:33N 30°04' W 093°33'7 7.5
2016-Apr-28 06:33N 30°03' W 093°42'11 3.7
2016-Apr-28 03:28N 29°59' W 093°54'3 3.2
2016-Apr-28 02:33N 29°58' W 093°52'0 0.0
2016-Apr-28 01:32N 29°58' W 093°52'0 0.0
2016-Apr-28 00:31N 29°58' W 093°52'0 0.0
2016-Apr-27 23:32N 29°58' W 093°52'1 0.5
2016-Apr-27 22:30N 29°57' W 093°52'1 0.5
2016-Apr-27 21:30N 29°58' W 093°52'0 0.0
2016-Apr-27 20:28N 29°58' W 093°52'0 0.0
2016-Apr-27 19:33N 29°58' W 093°52'0 0.0
2016-Apr-27 18:32N 29°58' W 093°52'1 0.5
2016-Apr-27 17:33N 29°57' W 093°52'0 0.0
2016-Apr-27 16:33N 29°57' W 093°52'0 0.0
2016-Apr-27 15:32N 29°57' W 093°52'0 0.0
2016-Apr-27 14:33N 29°57' W 093°52'0 0.0
2016-Apr-27 10:33N 29°57' W 093°52'0 0.0
2016-Apr-27 09:18N 29°57' W 093°52'0 0.0
2016-Apr-27 08:32N 29°57' W 093°52'0 0.0
2016-Apr-27 07:26N 29°57' W 093°52'0 0.0
2016-Apr-27 06:24N 29°57' W 093°52'0 0.0
2016-Apr-27 05:29N 29°57' W 093°52'0 0.0
2016-Apr-27 04:28N 29°57' W 093°52'0 0.0
2016-Apr-27 03:27N 29°57' W 093°52'10 0.6
2016-Apr-26 09:22N 29°50' W 093°59'  
Track history (hours):
 
Tides and Currents Weather Stations Pressure Air Temp Water Temp Dewpoint Dewpoint Depression Visibility Wind Speed Wind Dir Waves Ship Positions

Earl Gonsoulin

Owner: LeBeouf Bros. Towing, L.L.C., Houma, LA. More information available from US FCC via Universal Licensing System and Coast Guard Vessel Documentation Center.

Last reported at 2016-May-06 08:32 UTC. Time now 2016-May-06 20:37 UTC.
Position N 29°57' W 090°14'.

Length 21 m; draft 3 m.

Type: Tug. MMSI: 367005550.

Date/timePositionNaut miles runAvg speedWind from/ knotsBaromVisibWave heightAir tempDewpointWater temp
2016-May-06 08:32N 29°57' W 090°14'4 3.4
2016-May-06 07:20N 29°57' W 090°09'3 3.4
2016-May-06 06:33N 29°55' W 090°08'4 4.5
2016-May-06 05:33N 29°57' W 090°04'5 4.8
2016-May-06 04:33N 29°56' W 089°58'1 0.7
2016-May-06 03:33N 29°55' W 089°58'2 1.9
2016-May-06 02:33N 29°53' W 089°60'0 0.0
2016-May-06 01:33N 29°53' W 089°60'0 0.0
2016-May-05 22:22N 29°53' W 089°60'0 0.0
2016-May-05 21:33N 29°53' W 089°60'0 0.0
2016-May-05 18:26N 29°53' W 089°60'3 3.5
2016-May-05 17:33N 29°51' W 090°02'28 3.7
2016-May-05 10:05N 29°33' W 090°26'3 5.9
2016-May-05 09:33N 29°34' W 090°30'5 5.3
2016-May-05 08:33N 29°35' W 090°36'4 3.9
2016-May-05 07:33N 29°36' W 090°40'2 2.4
2016-May-05 06:33N 29°35' W 090°43'3 2.6
2016-May-05 05:33N 29°34' W 090°45'2 1.6
2016-May-05 04:33N 29°32' W 090°46'109 4.5
2016-May-04 04:20N 29°58' W 092°47'9 5.1
2016-May-04 02:30N 29°56' W 092°57'5 4.8
2016-May-04 01:31N 29°56' W 093°03'4 4.5
2016-May-04 00:33N 29°56' W 093°08'5 4.7
2016-May-03 23:33N 29°59' W 093°12'5 4.5
2016-May-03 22:33N 30°02' W 093°16'3 3.5
2016-May-03 21:33N 30°05' W 093°18'1 1.0
2016-May-03 20:33N 30°06' W 093°18'3 3.4
2016-May-03 19:33N 30°09' W 093°20'6 5.5
2016-May-03 18:33N 30°13' W 093°16'1 0.6
2016-May-03 17:33N 30°14' W 093°15'0 0.0
2016-May-03 16:33N 30°14' W 093°15'0 0.0
2016-May-03 15:33N 30°14' W 093°15'0 0.0
2016-May-03 14:33N 30°14' W 093°15'0 0.0
2016-May-03 13:33N 30°14' W 093°15'0 0.0
2016-May-03 12:33N 30°14' W 093°15'0 0.0
2016-May-03 11:33N 30°14' W 093°15'0 0.0
2016-May-03 10:33N 30°14' W 093°15'0 0.0
2016-May-03 09:33N 30°14' W 093°15'0 0.0
2016-May-03 08:33N 30°14' W 093°15'0 0.0
2016-May-03 07:33N 30°14' W 093°15'0 0.0
2016-May-03 06:33N 30°14' W 093°15'0 0.0
2016-May-03 05:33N 30°14' W 093°15'0 0.0
2016-May-03 04:33N 30°14' W 093°15'0 0.0
2016-May-03 03:33N 30°14' W 093°15'0 0.0
2016-May-03 02:33N 30°14' W 093°15'0 0.0
2016-May-03 01:33N 30°14' W 093°15'0 0.0
2016-May-03 00:33N 30°14' W 093°15'0 0.0
2016-May-02 23:33N 30°14' W 093°15'0 0.0
2016-May-02 22:33N 30°14' W 093°15'0 0.0
2016-May-02 21:33N 30°14' W 093°15'0 0.0
2016-May-02 20:33N 30°14' W 093°15'0 0.0
2016-May-02 19:33N 30°14' W 093°15'0 0.0
2016-May-02 18:33N 30°14' W 093°15'0 0.0
2016-May-02 17:33N 30°14' W 093°15'0 0.0
2016-May-02 16:33N 30°14' W 093°15'0 0.0
2016-May-02 15:33N 30°14' W 093°15'0 0.0
2016-May-02 14:33N 30°14' W 093°15'0 0.0
2016-May-02 13:33N 30°14' W 093°15'0 0.0
2016-May-02 12:33N 30°14' W 093°15'0 0.0
2016-May-02 11:33N 30°14' W 093°15'0 0.0
2016-May-02 10:33N 30°14' W 093°15'0 0.0
2016-May-02 09:33N 30°14' W 093°15'0 0.0
2016-May-02 08:33N 30°14' W 093°15'0 0.0
2016-May-02 07:33N 30°14' W 093°15'0 0.0
2016-May-02 06:33N 30°14' W 093°15'0 0.0
2016-May-02 05:33N 30°14' W 093°15'0 0.0
2016-May-02 04:33N 30°14' W 093°15'0 0.0
2016-May-02 03:33N 30°14' W 093°15'0 0.0
2016-May-02 02:33N 30°14' W 093°15'0 0.0
2016-May-02 01:33N 30°14' W 093°15'0 0.0
2016-May-02 00:33N 30°14' W 093°15'0 0.0
2016-May-01 23:33N 30°14' W 093°15'0 0.0
2016-May-01 22:33N 30°14' W 093°15'0 0.0
2016-May-01 21:33N 30°14' W 093°15'0 0.0
2016-May-01 20:33N 30°14' W 093°15'0 0.0
2016-May-01 19:33N 30°14' W 093°15'0 0.0
2016-May-01 18:33N 30°14' W 093°15'0 0.0
2016-May-01 17:33N 30°14' W 093°15'0 0.0
2016-May-01 16:33N 30°14' W 093°15'0 0.0
2016-May-01 15:33N 30°14' W 093°15'0 0.0
2016-May-01 14:33N 30°14' W 093°15'0 0.0
2016-May-01 13:33N 30°14' W 093°15'1 0.6
2016-May-01 12:33N 30°13' W 093°16'4 4.1
2016-May-01 11:33N 30°11' W 093°19'2 2.4
2016-May-01 10:33N 30°08' W 093°19'0 0.1
2016-May-01 09:33N 30°08' W 093°19'0 0.0
2016-May-01 08:33N 30°08' W 093°19'0 0.0
2016-May-01 07:33N 30°08' W 093°19'0 0.0
2016-May-01 06:33N 30°08' W 093°19'0 0.0
2016-May-01 05:33N 30°08' W 093°19'0 0.0
2016-May-01 04:33N 30°08' W 093°19'0 0.0
2016-May-01 03:33N 30°08' W 093°19'0 0.0
2016-May-01 02:33N 30°08' W 093°19'0 0.0
2016-May-01 01:33N 30°08' W 093°19'0 0.0
2016-Apr-30 13:33N 30°08' W 093°19'0 0.0
2016-Apr-30 12:33N 30°08' W 093°19'0 0.0
2016-Apr-30 11:33N 30°08' W 093°19'0 0.0
2016-Apr-30 10:33N 30°08' W 093°19'0 0.1
2016-Apr-30 09:33N 30°08' W 093°19'0 0.0
2016-Apr-30 08:33N 30°08' W 093°19'2 2.4
2016-Apr-30 07:33N 30°06' W 093°20'1 1.4
2016-Apr-30 06:33N 30°05' W 093°20'0 0.0
2016-Apr-30 05:32N 30°05' W 093°20'0 0.0
2016-Apr-30 04:32N 30°05' W 093°20'0 0.0
2016-Apr-30 03:33N 30°05' W 093°20'0 0.0
2016-Apr-30 02:33N 30°05' W 093°20'0 0.0
2016-Apr-30 01:30N 30°05' W 093°20'0 0.0
2016-Apr-30 00:33N 30°05' W 093°20'0 0.0
2016-Apr-29 23:30N 30°05' W 093°20'0 0.0
2016-Apr-29 22:28N 30°05' W 093°20'0 0.0
2016-Apr-29 21:33N 30°05' W 093°20'0 0.0
2016-Apr-29 20:30N 30°05' W 093°20'0 0.0
2016-Apr-29 19:25N 30°05' W 093°20'0 0.0
2016-Apr-29 18:08N 30°05' W 093°20'0 0.0
2016-Apr-29 14:29N 30°05' W 093°20'0 0.0
2016-Apr-29 10:32N 30°05' W 093°20'0 0.0
2016-Apr-29 08:32N 30°05' W 093°20'0 0.0
2016-Apr-29 07:33N 30°05' W 093°20'0 0.0
2016-Apr-29 06:33N 30°05' W 093°20'0 0.0
2016-Apr-29 03:33N 30°05' W 093°20'0 0.0
2016-Apr-29 02:33N 30°05' W 093°20'0 0.0
2016-Apr-29 01:33N 30°05' W 093°20'0 0.0
2016-Apr-29 00:33N 30°05' W 093°20'0 0.0
2016-Apr-28 23:33N 30°05' W 093°20'1 0.6
2016-Apr-28 22:33N 30°05' W 093°20'0 0.0
2016-Apr-28 21:33N 30°05' W 093°20'0 0.0
2016-Apr-28 20:33N 30°05' W 093°20'0 0.0
2016-Apr-28 19:33N 30°05' W 093°20'1 0.6
2016-Apr-28 18:33N 30°05' W 093°20'0 0.0
2016-Apr-28 17:33N 30°05' W 093°20'0 0.0
2016-Apr-28 16:33N 30°05' W 093°20'0 0.0
2016-Apr-28 15:33N 30°05' W 093°20'0 0.0
2016-Apr-28 14:33N 30°05' W 093°20'0 0.0
2016-Apr-28 13:33N 30°05' W 093°20'0 0.0
2016-Apr-28 12:33N 30°05' W 093°20'0 0.0
2016-Apr-28 11:33N 30°05' W 093°20'0 0.0
2016-Apr-28 10:33N 30°05' W 093°20'0 0.1
2016-Apr-28 09:33N 30°05' W 093°20'5 4.8
2016-Apr-28 08:33N 30°04' W 093°26'7 6.8
2016-Apr-28 07:33N 30°04' W 093°33'7 7.5
2016-Apr-28 06:33N 30°03' W 093°42'11 3.7
2016-Apr-28 03:28N 29°59' W 093°54'3 3.2
2016-Apr-28 02:33N 29°58' W 093°52'0 0.0
2016-Apr-28 01:32N 29°58' W 093°52'0 0.0
2016-Apr-28 00:31N 29°58' W 093°52'0 0.0
2016-Apr-27 23:32N 29°58' W 093°52'1 0.5
2016-Apr-27 22:30N 29°57' W 093°52'1 0.5
2016-Apr-27 21:30N 29°58' W 093°52'0 0.0
2016-Apr-27 20:28N 29°58' W 093°52'0 0.0
2016-Apr-27 19:33N 29°58' W 093°52'0 0.0
2016-Apr-27 18:32N 29°58' W 093°52'1 0.5
2016-Apr-27 17:33N 29°57' W 093°52'0 0.0
2016-Apr-27 16:33N 29°57' W 093°52'0 0.0
2016-Apr-27 15:32N 29°57' W 093°52'0 0.0
2016-Apr-27 14:33N 29°57' W 093°52'0 0.0
2016-Apr-27 10:33N 29°57' W 093°52'0 0.0
2016-Apr-27 09:18N 29°57' W 093°52'0 0.0
2016-Apr-27 08:32N 29°57' W 093°52'0 0.0
2016-Apr-27 07:26N 29°57' W 093°52'0 0.0
2016-Apr-27 06:24N 29°57' W 093°52'0 0.0
2016-Apr-27 05:29N 29°57' W 093°52'0 0.0
2016-Apr-27 04:28N 29°57' W 093°52'0 0.0
2016-Apr-27 03:27N 29°57' W 093°52'10 0.6
2016-Apr-26 09:22N 29°50' W 093°59'  

Dump ship's entire track history